sensor_id;sensor_type;location;lat;lon;timestamp;pressure;altitude;pressure_sealevel;temperature;humidity
24962;BME280;12992;50.884;13.668;2023-04-01T00:01:03;95651.28;;;8.49;100.00
24962;BME280;12992;50.884;13.668;2023-04-01T00:03:29;95651.84;;;8.46;100.00
24962;BME280;12992;50.884;13.668;2023-04-01T00:05:55;95650.22;;;8.45;100.00
24962;BME280;12992;50.884;13.668;2023-04-01T00:08:21;95659.69;;;8.47;100.00
24962;BME280;12992;50.884;13.668;2023-04-01T00:10:46;95649.97;;;8.41;100.00
24962;BME280;12992;50.884;13.668;2023-04-01T00:13:12;95652.44;;;8.38;100.00
24962;BME280;12992;50.884;13.668;2023-04-01T00:15:38;95657.06;;;8.37;100.00
24962;BME280;12992;50.884;13.668;2023-04-01T00:18:03;95654.06;;;8.34;100.00
24962;BME280;12992;50.884;13.668;2023-04-01T00:20:29;95658.94;;;8.37;100.00
24962;BME280;12992;50.884;13.668;2023-04-01T00:22:54;95661.16;;;8.35;100.00
24962;BME280;12992;50.884;13.668;2023-04-01T00:25:20;95664.66;;;8.35;100.00
24962;BME280;12992;50.884;13.668;2023-04-01T00:27:45;95658.97;;;8.32;100.00
24962;BME280;12992;50.884;13.668;2023-04-01T00:30:11;95657.06;;;8.32;100.00
24962;BME280;12992;50.884;13.668;2023-04-01T00:32:36;95662.22;;;8.29;100.00
24962;BME280;12992;50.884;13.668;2023-04-01T00:35:03;95666.31;;;8.26;100.00
24962;BME280;12992;50.884;13.668;2023-04-01T00:37:28;95664.41;;;8.27;100.00
24962;BME280;12992;50.884;13.668;2023-04-01T00:39:54;95658.47;;;8.24;100.00
24962;BME280;12992;50.884;13.668;2023-04-01T00:42:19;95667.13;;;8.27;100.00
24962;BME280;12992;50.884;13.668;2023-04-01T00:44:50;95662.00;;;8.25;100.00
24962;BME280;12992;50.884;13.668;2023-04-01T00:47:15;95665.50;;;8.26;100.00
24962;BME280;12992;50.884;13.668;2023-04-01T00:49:44;95670.41;;;8.23;100.00
24962;BME280;12992;50.884;13.668;2023-04-01T00:52:13;95667.16;;;8.21;100.00
24962;BME280;12992;50.884;13.668;2023-04-01T00:54:43;95663.41;;;8.17;100.00
24962;BME280;12992;50.884;13.668;2023-04-01T00:57:27;95667.72;;;8.18;100.00
24962;BME280;12992;50.884;13.668;2023-04-01T00:59:55;95678.00;;;8.21;100.00
24962;BME280;12992;50.884;13.668;2023-04-01T01:02:21;95669.88;;;8.21;100.00
24962;BME280;12992;50.884;13.668;2023-04-01T01:04:46;95665.00;;;8.18;100.00
24962;BME280;12992;50.884;13.668;2023-04-01T01:07:15;95656.34;;;8.16;100.00
24962;BME280;12992;50.884;13.668;2023-04-01T01:12:35;95659.59;;;8.18;100.00
24962;BME280;12992;50.884;13.668;2023-04-01T01:16:19;95663.91;;;8.19;100.00
24962;BME280;12992;50.884;13.668;2023-04-01T01:20:56;95660.97;;;8.16;100.00
24962;BME280;12992;50.884;13.668;2023-04-01T01:23:43;95655.56;;;8.11;100.00
24962;BME280;12992;50.884;13.668;2023-04-01T01:31:37;95649.09;;;8.07;100.00
24962;BME280;12992;50.884;13.668;2023-04-01T01:34:28;95640.69;;;8.03;100.00
24962;BME280;12992;50.884;13.668;2023-04-01T01:37:10;95649.38;;;8.05;100.00
24962;BME280;12992;50.884;13.668;2023-04-01T01:39:39;95656.44;;;8.06;100.00
24962;BME280;12992;50.884;13.668;2023-04-01T01:42:09;95646.69;;;8.05;100.00
24962;BME280;12992;50.884;13.668;2023-04-01T01:44:38;95651.53;;;8.08;100.00
24962;BME280;12992;50.884;13.668;2023-04-01T01:47:05;95649.09;;;8.07;100.00
24962;BME280;12992;50.884;13.668;2023-04-01T01:49:32;95647.19;;;8.07;100.00
24962;BME280;12992;50.884;13.668;2023-04-01T01:51:58;95648.28;;;8.06;100.00
24962;BME280;12992;50.884;13.668;2023-04-01T01:54:23;95652.91;;;8.06;100.00
24962;BME280;12992;50.884;13.668;2023-04-01T01:56:54;95643.16;;;8.05;100.00
24962;BME280;12992;50.884;13.668;2023-04-01T01:59:22;95652.84;;;8.11;100.00
24962;BME280;12992;50.884;13.668;2023-04-01T02:01:51;95646.91;;;8.09;100.00
24962;BME280;12992;50.884;13.668;2023-04-01T02:04:21;95650.72;;;8.08;100.00
24962;BME280;12992;50.884;13.668;2023-04-01T02:06:58;95648.28;;;8.06;100.00
24962;BME280;12992;50.884;13.668;2023-04-01T02:09:25;95647.19;;;8.07;100.00
24962;BME280;12992;50.884;13.668;2023-04-01T02:12:01;95653.13;;;8.09;100.00
24962;BME280;12992;50.884;13.668;2023-04-01T02:14:57;95665.31;;;8.17;100.00
24962;BME280;12992;50.884;13.668;2023-04-01T02:17:27;95664.19;;;8.23;100.00
24962;BME280;12992;50.884;13.668;2023-04-01T02:20:21;95669.31;;;8.24;100.00
24962;BME280;12992;50.884;13.668;2023-04-01T02:22:53;95660.63;;;8.28;100.00
24962;BME280;12992;50.884;13.668;2023-04-01T02:25:24;95668.72;;;8.33;100.00
24962;BME280;12992;50.884;13.668;2023-04-01T02:27:51;95672.00;;;8.35;100.00
24962;BME280;12992;50.884;13.668;2023-04-01T02:30:18;95663.28;;;8.38;100.00
24962;BME280;12992;50.884;13.668;2023-04-01T02:32:44;95667.63;;;8.39;100.00
24962;BME280;12992;50.884;13.668;2023-04-01T02:35:11;95664.09;;;8.38;100.00
24962;BME280;12992;50.884;13.668;2023-04-01T02:37:38;95671.69;;;8.41;100.00
24962;BME280;12992;50.884;13.668;2023-04-01T02:40:08;95668.44;;;8.39;100.00
24962;BME280;12992;50.884;13.668;2023-04-01T02:42:34;95673.31;;;8.42;100.00
24962;BME280;12992;50.884;13.668;2023-04-01T02:44:59;95676.81;;;8.43;100.00
24962;BME280;12992;50.884;13.668;2023-04-01T02:47:25;95675.50;;;8.40;100.00
24962;BME280;12992;50.884;13.668;2023-04-01T02:49:50;95676.84;;;8.38;100.00
24962;BME280;12992;50.884;13.668;2023-04-01T02:52:16;95676.31;;;8.36;100.00
24962;BME280;12992;50.884;13.668;2023-04-01T02:54:41;95667.13;;;8.32;100.00
24962;BME280;12992;50.884;13.668;2023-04-01T02:57:06;95669.28;;;8.30;100.00
24962;BME280;12992;50.884;13.668;2023-04-01T02:59:32;95674.69;;;8.30;100.00
24962;BME280;12992;50.884;13.668;2023-04-01T03:01:57;95666.31;;;8.26;100.00
24962;BME280;12992;50.884;13.668;2023-04-01T03:04:22;95665.00;;;8.23;100.00
24962;BME280;12992;50.884;13.668;2023-04-01T03:06:48;95667.16;;;8.21;100.00
24962;BME280;12992;50.884;13.668;2023-04-01T03:09:13;95658.78;;;8.18;100.00
24962;BME280;12992;50.884;13.668;2023-04-01T03:11:39;95660.69;;;8.17;100.00
24962;BME280;12992;50.884;13.668;2023-04-01T03:14:06;95663.69;;;8.16;100.00
24962;BME280;12992;50.884;13.668;2023-04-01T03:16:32;95671.53;;;8.17;100.00
24962;BME280;12992;50.884;13.668;2023-04-01T03:18:58;95666.63;;;8.19;100.00
24962;BME280;12992;50.884;13.668;2023-04-01T03:21:25;95669.06;;;8.21;100.00
24962;BME280;12992;50.884;13.668;2023-04-01T03:23:51;95672.84;;;8.25;100.00
24962;BME280;12992;50.884;13.668;2023-04-01T03:26:17;95682.31;;;8.28;100.00
24962;BME280;12992;50.884;13.668;2023-04-01T03:28:43;95675.50;;;8.30;100.00
24962;BME280;12992;50.884;13.668;2023-04-01T03:31:09;95679.56;;;8.33;100.00
24962;BME280;12992;50.884;13.668;2023-04-01T03:33:41;95689.31;;;8.39;100.00
24962;BME280;12992;50.884;13.668;2023-04-01T03:36:07;95676.03;;;8.37;100.00
24962;BME280;12992;50.884;13.668;2023-04-01T03:38:33;95680.66;;;8.37;100.00
24962;BME280;12992;50.884;13.668;2023-04-01T03:40:59;95676.56;;;8.34;100.00
24962;BME280;12992;50.884;13.668;2023-04-01T03:43:25;95684.97;;;8.38;100.00
24962;BME280;12992;50.884;13.668;2023-04-01T03:45:52;95680.66;;;8.37;100.00
24962;BME280;12992;50.884;13.668;2023-04-01T03:48:18;95677.66;;;8.38;100.00
24962;BME280;12992;50.884;13.668;2023-04-01T03:50:44;95682.25;;;8.38;100.00
24962;BME280;12992;50.884;13.668;2023-04-01T03:53:10;95682.00;;;8.39;100.00
24962;BME280;12992;50.884;13.668;2023-04-01T03:55:38;95680.06;;;8.45;100.00
24962;BME280;12992;50.884;13.668;2023-04-01T03:58:05;95680.56;;;8.47;100.00
24962;BME280;12992;50.884;13.668;2023-04-01T04:00:30;95683.28;;;8.47;100.00
24962;BME280;12992;50.884;13.668;2023-04-01T04:02:56;95676.75;;;8.48;100.00
24962;BME280;12992;50.884;13.668;2023-04-01T04:05:28;95682.19;;;8.48;100.00
24962;BME280;12992;50.884;13.668;2023-04-01T04:07:54;95678.16;;;8.45;100.00
24962;BME280;12992;50.884;13.668;2023-04-01T04:10:20;95689.25;;;8.49;100.00
24962;BME280;12992;50.884;13.668;2023-04-01T04:12:49;95687.88;;;8.51;100.00
24962;BME280;12992;50.884;13.668;2023-04-01T04:15:14;95688.47;;;8.48;100.00
24962;BME280;12992;50.884;13.668;2023-04-01T04:17:40;95693.03;;;8.53;100.00
24962;BME280;12992;50.884;13.668;2023-04-01T04:20:07;95692.22;;;8.52;100.00
24962;BME280;12992;50.884;13.668;2023-04-01T04:22:33;95692.50;;;8.51;100.00
24962;BME280;12992;50.884;13.668;2023-04-01T04:24:59;95701.72;;;8.50;100.00
24962;BME280;12992;50.884;13.668;2023-04-01T04:27:25;95695.50;;;8.49;100.00
24962;BME280;12992;50.884;13.668;2023-04-01T04:29:59;95696.84;;;8.47;100.00
24962;BME280;12992;50.884;13.668;2023-04-01T04:32:24;95695.00;;;8.42;100.00
24962;BME280;12992;50.884;13.668;2023-04-01T04:34:49;95701.81;;;8.40;100.00
24962;BME280;12992;50.884;13.668;2023-04-01T04:37:15;95693.94;;;8.38;100.00
24962;BME280;12992;50.884;13.668;2023-04-01T04:39:40;95699.91;;;8.35;100.00
24962;BME280;12992;50.884;13.668;2023-04-01T04:42:06;95711.28;;;8.37;100.00
24962;BME280;12992;50.884;13.668;2023-04-01T04:44:31;95712.66;;;8.40;100.00
24962;BME280;12992;50.884;13.668;2023-04-01T04:46:58;95714.81;;;8.38;100.00
24962;BME280;12992;50.884;13.668;2023-04-01T04:49:23;95718.34;;;8.38;100.00
24962;BME280;12992;50.884;13.668;2023-04-01T04:51:49;95724.03;;;8.42;100.00
24962;BME280;12992;50.884;13.668;2023-04-01T04:54:17;95730.56;;;8.41;100.00
24962;BME280;12992;50.884;13.668;2023-04-01T04:56:52;95732.41;;;8.45;100.00
24962;BME280;12992;50.884;13.668;2023-04-01T04:59:18;95733.22;;;8.46;100.00
24962;BME280;12992;50.884;13.668;2023-04-01T05:01:57;95731.84;;;8.48;100.00
24962;BME280;12992;50.884;13.668;2023-04-01T05:04:23;95724.25;;;8.45;100.00
24962;BME280;12992;50.884;13.668;2023-04-01T05:06:48;95736.19;;;8.49;100.00
24962;BME280;12992;50.884;13.668;2023-04-01T05:09:15;95731.03;;;8.48;100.00
24962;BME280;12992;50.884;13.668;2023-04-01T05:11:41;95740.81;;;8.44;100.00
24962;BME280;12992;50.884;13.668;2023-04-01T05:14:12;95735.91;;;8.46;100.00
24962;BME280;12992;50.884;13.668;2023-04-01T05:16:37;95749.75;;;8.49;100.00
24962;BME280;12992;50.884;13.668;2023-04-01T05:19:02;95742.44;;;8.45;100.00
24962;BME280;12992;50.884;13.668;2023-04-01T05:21:28;95744.63;;;8.43;100.00
24962;BME280;12992;50.884;13.668;2023-04-01T05:23:55;95748.44;;;8.42;100.00
24962;BME280;12992;50.884;13.668;2023-04-01T05:26:22;95741.13;;;8.37;100.00
24962;BME280;12992;50.884;13.668;2023-04-01T05:28:47;95743.81;;;8.42;100.00
24962;BME280;12992;50.884;13.668;2023-04-01T05:31:13;95749.81;;;8.39;100.00
24962;BME280;12992;50.884;13.668;2023-04-01T05:33:40;95750.34;;;8.41;100.00
24962;BME280;12992;50.884;13.668;2023-04-01T05:36:08;95749.81;;;8.39;100.00
24962;BME280;12992;50.884;13.668;2023-04-01T05:38:34;95754.38;;;8.44;100.00
24962;BME280;12992;50.884;13.668;2023-04-01T05:41:01;95758.69;;;8.50;100.00
24962;BME280;12992;50.884;13.668;2023-04-01T05:43:28;95763.03;;;8.51;100.00
24962;BME280;12992;50.884;13.668;2023-04-01T05:45:56;95758.44;;;8.46;100.00
24962;BME280;12992;50.884;13.668;2023-04-01T05:48:34;95768.25;;;8.42;100.00
24962;BME280;12992;50.884;13.668;2023-04-01T05:51:00;95760.41;;;8.36;100.00
24962;BME280;12992;50.884;13.668;2023-04-01T05:53:27;95766.09;;;8.39;100.00
24962;BME280;12992;50.884;13.668;2023-04-01T05:55:52;95769.06;;;8.38;100.00
24962;BME280;12992;50.884;13.668;2023-04-01T05:58:18;95763.63;;;8.38;100.00
24962;BME280;12992;50.884;13.668;2023-04-01T06:00:45;95776.66;;;8.41;100.00
24962;BME280;12992;50.884;13.668;2023-04-01T06:03:12;95785.28;;;8.48;100.00
24962;BME280;12992;50.884;13.668;2023-04-01T06:05:40;95780.94;;;8.52;100.00
24962;BME280;12992;50.884;13.668;2023-04-01T06:08:16;95778.19;;;8.57;100.00
24962;BME280;12992;50.884;13.668;2023-04-01T06:11:19;95780.63;;;8.59;100.00
24962;BME280;12992;50.884;13.668;2023-04-01T06:25:27;95800.63;;;9.12;100.00
24962;BME280;12992;50.884;13.668;2023-04-01T06:33:43;95794.59;;;9.15;100.00
24962;BME280;12992;50.884;13.668;2023-04-01T06:39:02;95808.69;;;9.22;100.00
24962;BME280;12992;50.884;13.668;2023-04-01T06:48:02;95831.75;;;9.54;100.00
24962;BME280;12992;50.884;13.668;2023-04-01T06:51:04;95837.66;;;9.66;100.00
24962;BME280;12992;50.884;13.668;2023-04-01T06:54:03;95834.03;;;9.71;100.00
24962;BME280;12992;50.884;13.668;2023-04-01T06:56:52;95828.38;;;9.67;100.00
24962;BME280;12992;50.884;13.668;2023-04-01T06:59:26;95817.09;;;9.55;100.00
24962;BME280;12992;50.884;13.668;2023-04-01T07:02:32;95822.47;;;9.60;100.00
24962;BME280;12992;50.884;13.668;2023-04-01T07:05:00;95822.44;;;9.65;100.00
24962;BME280;12992;50.884;13.668;2023-04-01T07:07:36;95825.44;;;9.63;100.00
24962;BME280;12992;50.884;13.668;2023-04-01T07:10:25;95832.22;;;9.66;100.00
24962;BME280;12992;50.884;13.668;2023-04-01T07:13:21;95822.94;;;9.67;100.00
24962;BME280;12992;50.884;13.668;2023-04-01T07:16:16;95815.94;;;9.61;100.00
24962;BME280;12992;50.884;13.668;2023-04-01T07:18:49;95818.09;;;9.64;100.00
24962;BME280;12992;50.884;13.668;2023-04-01T07:21:26;95824.84;;;9.67;100.00
24962;BME280;12992;50.884;13.668;2023-04-01T07:24:00;95835.13;;;9.75;100.00
24962;BME280;12992;50.884;13.668;2023-04-01T07:26:38;95843.78;;;9.77;100.00
24962;BME280;12992;50.884;13.668;2023-04-01T07:29:12;95829.16;;;9.73;100.00
24962;BME280;12992;50.884;13.668;2023-04-01T07:34:55;95847.16;;;9.92;100.00
24962;BME280;12992;50.884;13.668;2023-04-01T07:40:17;95881.03;;;10.34;100.00
24962;BME280;12992;50.884;13.668;2023-04-01T07:43:25;95881.97;;;10.67;100.00
24962;BME280;12992;50.884;13.668;2023-04-01T07:49:22;95868.97;;;10.64;100.00
24962;BME280;12992;50.884;13.668;2023-04-01T07:51:59;95888.66;;;10.80;100.00
24962;BME280;12992;50.884;13.668;2023-04-01T07:54:35;95887.91;;;10.93;100.00
24962;BME280;12992;50.884;13.668;2023-04-01T08:03:05;95871.25;;;10.76;100.00
24962;BME280;12992;50.884;13.668;2023-04-01T08:05:46;95874.69;;;10.87;100.00
24962;BME280;12992;50.884;13.668;2023-04-01T08:11:41;95866.56;;;11.00;100.00
24962;BME280;12992;50.884;13.668;2023-04-01T08:14:42;95873.78;;;11.10;100.00
24962;BME280;12992;50.884;13.668;2023-04-01T08:17:33;95884.34;;;11.17;100.00
24962;BME280;12992;50.884;13.668;2023-04-01T08:28:57;95880.13;;;11.05;100.00
24962;BME280;12992;50.884;13.668;2023-04-01T08:31:26;95901.03;;;11.29;100.00
24962;BME280;12992;50.884;13.668;2023-04-01T08:33:56;95906.56;;;11.43;100.00
24962;BME280;12992;50.884;13.668;2023-04-01T08:36:29;95915.25;;;11.63;100.00
24962;BME280;12992;50.884;13.668;2023-04-01T08:39:22;95837.81;;;11.13;100.00
24962;BME280;12992;50.884;13.668;2023-04-01T08:54:05;95848.50;;;10.67;100.00
24962;BME280;12992;50.884;13.668;2023-04-01T08:56:53;95850.41;;;10.66;100.00
24962;BME280;12992;50.884;13.668;2023-04-01T08:59:48;95862.59;;;10.74;100.00
24962;BME280;12992;50.884;13.668;2023-04-01T09:02:51;95855.88;;;10.66;100.00
24962;BME280;12992;50.884;13.668;2023-04-01T09:26:24;95885.13;;;10.98;100.00
24962;BME280;12992;50.884;13.668;2023-04-01T09:29:16;95869.97;;;10.92;100.00
24962;BME280;12992;50.884;13.668;2023-04-01T09:32:10;95865.56;;;10.96;100.00
24962;BME280;12992;50.884;13.668;2023-04-01T09:37:59;95896.19;;;11.26;100.00
24962;BME280;12992;50.884;13.668;2023-04-01T09:44:05;95865.97;;;11.03;100.00
24962;BME280;12992;50.884;13.668;2023-04-01T09:49:41;95889.13;;;11.06;100.00
24962;BME280;12992;50.884;13.668;2023-04-01T09:52:24;95909.88;;;11.21;100.00
24962;BME280;12992;50.884;13.668;2023-04-01T10:13:48;95933.75;;;11.67;100.00
24962;BME280;12992;50.884;13.668;2023-04-01T10:16:49;95917.47;;;11.61;100.00
24962;BME280;12992;50.884;13.668;2023-04-01T10:19:56;95921.81;;;11.62;100.00
24962;BME280;12992;50.884;13.668;2023-04-01T10:22:49;95931.97;;;11.76;100.00
24962;BME280;12992;50.884;13.668;2023-04-01T10:25:49;95949.13;;;11.95;100.00
24962;BME280;12992;50.884;13.668;2023-04-01T10:32:34;95931.16;;;11.94;100.00
24962;BME280;12992;50.884;13.668;2023-04-01T10:46:52;95932.88;;;13.32;100.00
24962;BME280;12992;50.884;13.668;2023-04-01T10:50:00;95915.97;;;13.30;96.54
24962;BME280;12992;50.884;13.668;2023-04-01T10:52:53;95951.00;;;13.78;94.76
24962;BME280;12992;50.884;13.668;2023-04-01T10:56:33;95971.75;;;14.69;92.77
24962;BME280;12992;50.884;13.668;2023-04-01T11:17:34;95893.59;;;15.72;79.10
24962;BME280;12992;50.884;13.668;2023-04-01T11:31:29;95896.88;;;19.21;67.04
24962;BME280;12992;50.884;13.668;2023-04-01T11:34:03;95827.78;;;18.57;66.76
24962;BME280;12992;50.884;13.668;2023-04-01T11:36:44;95801.75;;;18.09;67.11
24962;BME280;12992;50.884;13.668;2023-04-01T11:42:24;95739.72;;;15.85;71.14
24962;BME280;12992;50.884;13.668;2023-04-01T11:48:13;95752.44;;;15.90;73.81
24962;BME280;12992;50.884;13.668;2023-04-01T11:50:53;95743.81;;;15.36;76.76
24962;BME280;12992;50.884;13.668;2023-04-01T11:58:44;95706.38;;;14.36;77.52
24962;BME280;12992;50.884;13.668;2023-04-01T12:01:34;95728.91;;;14.33;77.34
24962;BME280;12992;50.884;13.668;2023-04-01T12:04:21;95782.66;;;14.52;81.19
24962;BME280;12992;50.884;13.668;2023-04-01T12:07:14;95806.75;;;15.24;79.41
24962;BME280;12992;50.884;13.668;2023-04-01T12:09:52;95787.41;;;15.29;76.03
24962;BME280;12992;50.884;13.668;2023-04-01T12:12:46;95716.44;;;14.50;75.46
24962;BME280;12992;50.884;13.668;2023-04-01T12:15:27;95703.97;;;13.86;77.29
24962;BME280;12992;50.884;13.668;2023-04-01T12:23:56;95716.94;;;13.19;84.00
24962;BME280;12992;50.884;13.668;2023-04-01T12:33:02;95824.25;;;14.62;79.96
24962;BME280;12992;50.884;13.668;2023-04-01T12:40:54;95775.44;;;14.90;78.87
24962;BME280;12992;50.884;13.668;2023-04-01T12:46:19;95760.34;;;14.36;80.14
24962;BME280;12992;50.884;13.668;2023-04-01T12:52:15;95732.56;;;13.72;85.22
24962;BME280;12992;50.884;13.668;2023-04-01T12:55:07;95740.03;;;13.57;86.61
24962;BME280;12992;50.884;13.668;2023-04-01T12:58:02;95742.34;;;13.42;84.93
24962;BME280;12992;50.884;13.668;2023-04-01T13:00:46;95740.88;;;13.36;84.42
24962;BME280;12992;50.884;13.668;2023-04-01T13:20:00;95707.88;;;13.10;81.38
24962;BME280;12992;50.884;13.668;2023-04-01T13:22:47;95725.94;;;12.97;84.84
24962;BME280;12992;50.884;13.668;2023-04-01T13:28:00;95745.19;;;12.92;87.76
24962;BME280;12992;50.884;13.668;2023-04-01T13:41:47;95799.59;;;13.92;80.86
24962;BME280;12992;50.884;13.668;2023-04-01T13:44:28;95827.88;;;14.09;82.43
24962;BME280;12992;50.884;13.668;2023-04-01T13:50:02;95790.44;;;14.36;79.52
24962;BME280;12992;50.884;13.668;2023-04-01T14:04:29;95741.81;;;13.31;86.16
24962;BME280;12992;50.884;13.668;2023-04-01T14:07:21;95739.78;;;13.00;86.46
24962;BME280;12992;50.884;13.668;2023-04-01T14:12:58;95750.59;;;12.83;90.61
24962;BME280;12992;50.884;13.668;2023-04-01T14:21:16;95772.91;;;12.99;90.46
24962;BME280;12992;50.884;13.668;2023-04-01T14:23:54;95792.16;;;13.16;89.69
24962;BME280;12992;50.884;13.668;2023-04-01T14:29:51;95815.13;;;13.51;88.29
24962;BME280;12992;50.884;13.668;2023-04-01T14:35:38;95787.72;;;13.43;85.54
24962;BME280;12992;50.884;13.668;2023-04-01T14:38:28;95748.56;;;13.11;85.49
24962;BME280;12992;50.884;13.668;2023-04-01T14:41:06;95741.59;;;12.83;86.71
24962;BME280;12992;50.884;13.668;2023-04-01T14:43:47;95755.66;;;12.76;88.33
24962;BME280;12992;50.884;13.668;2023-04-01T14:46:50;95748.53;;;12.53;90.55
24962;BME280;12992;50.884;13.668;2023-04-01T14:51:43;95754.72;;;12.17;92.73
24962;BME280;12992;50.884;13.668;2023-04-01T14:54:14;95748.75;;;12.01;93.58
24962;BME280;12992;50.884;13.668;2023-04-01T14:56:49;95766.88;;;11.97;94.68
24962;BME280;12992;50.884;13.668;2023-04-01T15:02:00;95801.31;;;12.07;98.14
24962;BME280;12992;50.884;13.668;2023-04-01T15:05:07;95784.84;;;11.98;95.89
24962;BME280;12992;50.884;13.668;2023-04-01T15:07:58;95796.94;;;11.92;97.08
24962;BME280;12992;50.884;13.668;2023-04-01T15:10:58;95810.09;;;11.90;99.44
24962;BME280;12992;50.884;13.668;2023-04-01T15:19:14;95825.16;;;12.01;99.90
24962;BME280;12992;50.884;13.668;2023-04-01T15:24:48;95804.97;;;11.70;99.64
24962;BME280;12992;50.884;13.668;2023-04-01T15:27:32;95797.78;;;11.60;100.00
24962;BME280;12992;50.884;13.668;2023-04-01T15:35:50;95828.00;;;11.31;100.00
24962;BME280;12992;50.884;13.668;2023-04-01T15:38:33;95852.66;;;11.40;100.00
24962;BME280;12992;50.884;13.668;2023-04-01T15:41:03;95858.13;;;11.40;100.00
24962;BME280;12992;50.884;13.668;2023-04-01T15:43:44;95865.59;;;11.48;100.00
24962;BME280;12992;50.884;13.668;2023-04-01T15:48:59;95886.34;;;11.62;100.00
24962;BME280;12992;50.884;13.668;2023-04-01T15:51:43;95893.19;;;11.79;100.00
24962;BME280;12992;50.884;13.668;2023-04-01T16:05:04;95864.50;;;11.49;100.00
24962;BME280;12992;50.884;13.668;2023-04-01T16:10:17;95874.16;;;11.41;100.00
24962;BME280;12992;50.884;13.668;2023-04-01T16:16:00;95862.09;;;10.91;100.00
24962;BME280;12992;50.884;13.668;2023-04-01T16:21:38;95874.66;;;10.44;100.00
24962;BME280;12992;50.884;13.668;2023-04-01T16:33:01;95924.94;;;10.23;100.00
24962;BME280;12992;50.884;13.668;2023-04-01T16:35:42;95940.97;;;10.24;100.00
24962;BME280;12992;50.884;13.668;2023-04-01T16:38:15;95948.81;;;10.31;100.00
24962;BME280;12992;50.884;13.668;2023-04-01T16:43:41;95952.19;;;10.17;100.00
24962;BME280;12992;50.884;13.668;2023-04-01T16:46:26;95937.53;;;9.79;100.00
24962;BME280;12992;50.884;13.668;2023-04-01T16:51:48;95962.50;;;9.86;100.00
24962;BME280;12992;50.884;13.668;2023-04-01T17:00:02;95994.44;;;10.05;100.00
24962;BME280;12992;50.884;13.668;2023-04-01T17:02:38;96003.41;;;10.05;100.00
24962;BME280;12992;50.884;13.668;2023-04-01T17:05:10;96002.06;;;10.08;100.00
24962;BME280;12992;50.884;13.668;2023-04-01T17:07:48;96012.94;;;10.08;100.00
24962;BME280;12992;50.884;13.668;2023-04-01T17:10:43;96009.66;;;10.06;100.00
24962;BME280;12992;50.884;13.668;2023-04-01T17:13:40;96018.16;;;9.99;100.00
24962;BME280;12992;50.884;13.668;2023-04-01T17:16:28;96018.47;;;9.92;100.00
24962;BME280;12992;50.884;13.668;2023-04-01T17:19:32;96019.59;;;9.91;100.00
24962;BME280;12992;50.884;13.668;2023-04-01T17:22:15;96023.41;;;9.85;100.00
24962;BME280;12992;50.884;13.668;2023-04-01T17:27:54;96041.13;;;9.83;100.00
24962;BME280;12992;50.884;13.668;2023-04-01T17:30:44;96043.56;;;9.79;100.00
24962;BME280;12992;50.884;13.668;2023-04-01T17:36:24;96062.56;;;9.89;100.00
24962;BME280;12992;50.884;13.668;2023-04-01T17:39:15;96068.53;;;9.91;100.00
24962;BME280;12992;50.884;13.668;2023-04-01T17:41:55;96061.13;;;9.97;100.00
24962;BME280;12992;50.884;13.668;2023-04-01T17:44:34;96063.63;;;9.88;100.00
24962;BME280;12992;50.884;13.668;2023-04-01T17:50:02;96069.44;;;9.77;100.00
24962;BME280;12992;50.884;13.668;2023-04-01T17:52:35;96073.53;;;9.74;100.00
24962;BME280;12992;50.884;13.668;2023-04-01T18:03:48;96091.47;;;9.75;100.00
24962;BME280;12992;50.884;13.668;2023-04-01T18:12:03;96103.44;;;9.69;100.00
24962;BME280;12992;50.884;13.668;2023-04-01T18:17:44;96115.47;;;9.63;100.00
24962;BME280;12992;50.884;13.668;2023-04-01T18:20:43;96121.13;;;9.67;100.00
24962;BME280;12992;50.884;13.668;2023-04-01T18:23:30;96128.44;;;9.71;100.00
24962;BME280;12992;50.884;13.668;2023-04-01T18:26:05;96118.97;;;9.63;100.00
24962;BME280;12992;50.884;13.668;2023-04-01T18:28:38;96125.22;;;9.64;100.00
24962;BME280;12992;50.884;13.668;2023-04-01T18:31:15;96121.44;;;9.60;100.00
24962;BME280;12992;50.884;13.668;2023-04-01T18:33:45;96137.75;;;9.60;100.00
24962;BME280;12992;50.884;13.668;2023-04-01T18:39:32;96140.50;;;9.50;100.00
24962;BME280;12992;50.884;13.668;2023-04-01T18:42:30;96145.41;;;9.48;100.00
24962;BME280;12992;50.884;13.668;2023-04-01T18:45:26;96141.88;;;9.42;100.00
24962;BME280;12992;50.884;13.668;2023-04-01T18:48:06;96152.19;;;9.45;100.00
24962;BME280;12992;50.884;13.668;2023-04-01T18:50:43;96162.25;;;9.45;100.00
24962;BME280;12992;50.884;13.668;2023-04-01T18:56:05;96164.19;;;9.39;100.00
24962;BME280;12992;50.884;13.668;2023-04-01T18:59:22;96170.16;;;9.36;100.00
24962;BME280;12992;50.884;13.668;2023-04-01T19:01:47;96168.28;;;9.31;100.00
24962;BME280;12992;50.884;13.668;2023-04-01T19:04:38;96175.59;;;9.46;100.00
24962;BME280;12992;50.884;13.668;2023-04-01T19:10:40;96170.69;;;9.43;100.00
24962;BME280;12992;50.884;13.668;2023-04-01T19:16:10;96168.56;;;9.25;100.00
24962;BME280;12992;50.884;13.668;2023-04-01T19:18:47;96172.91;;;9.16;100.00
24962;BME280;12992;50.884;13.668;2023-04-01T19:21:27;96180.81;;;9.12;100.00
24962;BME280;12992;50.884;13.668;2023-04-01T19:24:06;96191.38;;;9.24;100.00
24962;BME280;12992;50.884;13.668;2023-04-01T19:26:49;96185.16;;;9.13;100.00
24962;BME280;12992;50.884;13.668;2023-04-01T19:31:59;96206.88;;;9.18;100.00
24962;BME280;12992;50.884;13.668;2023-04-01T19:34:41;96199.28;;;9.10;100.00
24962;BME280;12992;50.884;13.668;2023-04-01T19:37:33;96197.94;;;9.02;100.00
24962;BME280;12992;50.884;13.668;2023-04-01T19:43:23;96205.81;;;8.94;100.00
24962;BME280;12992;50.884;13.668;2023-04-01T19:48:42;96208.53;;;8.78;100.00